sensor_id;sensor_type;location;lat;lon;timestamp;pressure;altitude;pressure_sealevel;temperature;humidity
71956;BME280;59829;50.562;6.258;2023-09-08T00:07:50;96044.41;;;18.64;75.05
71956;BME280;59829;50.562;6.258;2023-09-08T00:17:53;96042.13;;;18.53;75.65
71956;BME280;59829;50.562;6.258;2023-09-08T00:27:57;96039.88;;;18.34;76.18
71956;BME280;59829;50.562;6.258;2023-09-08T00:38:03;96048.66;;;18.17;76.62
71956;BME280;59829;50.562;6.258;2023-09-08T00:48:07;96053.53;;;17.95;77.44
71956;BME280;59829;50.562;6.258;2023-09-08T00:58:08;96035.84;;;17.83;78.14
71956;BME280;59829;50.562;6.258;2023-09-08T01:08:12;96039.06;;;17.68;78.87
71956;BME280;59829;50.562;6.258;2023-09-08T01:18:16;96028.66;;;17.52;79.51
71956;BME280;59829;50.562;6.258;2023-09-08T01:28:17;96027.38;;;17.40;80.23
71956;BME280;59829;50.562;6.258;2023-09-08T01:38:21;96031.22;;;17.28;80.90
71956;BME280;59829;50.562;6.258;2023-09-08T01:48:22;96028.91;;;17.16;81.92
71956;BME280;59829;50.562;6.258;2023-09-08T01:58:26;96023.66;;;17.00;82.65
71956;BME280;59829;50.562;6.258;2023-09-08T02:08:28;96028.00;;;16.92;83.53
71956;BME280;59829;50.562;6.258;2023-09-08T02:18:29;96029.47;;;16.86;84.17
71956;BME280;59829;50.562;6.258;2023-09-08T02:28:30;96024.94;;;16.88;84.64
71956;BME280;59829;50.562;6.258;2023-09-08T02:38:33;96013.88;;;16.78;85.23
71956;BME280;59829;50.562;6.258;2023-09-08T02:48:34;96014.84;;;16.69;85.72
71956;BME280;59829;50.562;6.258;2023-09-08T02:58:35;96004.72;;;16.66;86.17
71956;BME280;59829;50.562;6.258;2023-09-08T03:08:41;96014.75;;;16.61;86.89
71956;BME280;59829;50.562;6.258;2023-09-08T03:18:42;96011.81;;;16.55;87.64
71956;BME280;59829;50.562;6.258;2023-09-08T03:28:46;96009.53;;;16.52;88.02
71956;BME280;59829;50.562;6.258;2023-09-08T03:38:49;96001.41;;;16.47;88.84
71956;BME280;59829;50.562;6.258;2023-09-08T03:48:49;95998.50;;;16.42;89.08
71956;BME280;59829;50.562;6.258;2023-09-08T03:58:51;95999.41;;;16.33;89.54
71956;BME280;59829;50.562;6.258;2023-09-08T04:08:52;95989.38;;;16.30;90.31
71956;BME280;59829;50.562;6.258;2023-09-08T04:18:52;95998.38;;;16.26;90.41
71956;BME280;59829;50.562;6.258;2023-09-08T04:28:53;95994.34;;;16.23;90.84
71956;BME280;59829;50.562;6.258;2023-09-08T04:38:56;95999.00;;;16.20;91.36
71956;BME280;59829;50.562;6.258;2023-09-08T04:48:59;95992.81;;;16.13;91.43
71956;BME280;59829;50.562;6.258;2023-09-08T04:59:03;95993.94;;;16.10;91.66
71956;BME280;59829;50.562;6.258;2023-09-08T05:09:04;96003.25;;;16.03;92.17
71956;BME280;59829;50.562;6.258;2023-09-08T05:19:05;96006.97;;;16.01;92.38
71956;BME280;59829;50.562;6.258;2023-09-08T05:29:06;96009.84;;;15.97;92.94
71956;BME280;59829;50.562;6.258;2023-09-08T05:39:06;96009.16;;;15.95;93.45
71956;BME280;59829;50.562;6.258;2023-09-08T05:49:07;96005.69;;;16.05;94.19
71956;BME280;59829;50.562;6.258;2023-09-08T05:59:07;96011.28;;;16.18;94.29
71956;BME280;59829;50.562;6.258;2023-09-08T06:09:07;96021.00;;;16.24;94.77
71956;BME280;59829;50.562;6.258;2023-09-08T06:19:09;96023.84;;;16.39;95.52
71956;BME280;59829;50.562;6.258;2023-09-08T06:29:09;96021.53;;;16.62;96.11
71956;BME280;59829;50.562;6.258;2023-09-08T06:39:09;96010.22;;;16.88;96.75
71956;BME280;59829;50.562;6.258;2023-09-08T06:49:10;96009.03;;;17.25;97.08
71956;BME280;59829;50.562;6.258;2023-09-08T06:59:10;96015.72;;;17.60;97.58
71956;BME280;59829;50.562;6.258;2023-09-08T07:09:10;96014.78;;;18.02;97.63
71956;BME280;59829;50.562;6.258;2023-09-08T07:19:11;96019.59;;;18.46;97.34
71956;BME280;59829;50.562;6.258;2023-09-08T07:29:11;96013.56;;;18.78;96.33
71956;BME280;59829;50.562;6.258;2023-09-08T07:39:12;96018.44;;;19.12;95.67
71956;BME280;59829;50.562;6.258;2023-09-08T07:49:12;96009.81;;;19.42;94.81
71956;BME280;59829;50.562;6.258;2023-09-08T07:59:12;96013.03;;;19.75;94.18
71956;BME280;59829;50.562;6.258;2023-09-08T08:09:13;96013.94;;;20.05;93.33
71956;BME280;59829;50.562;6.258;2023-09-08T08:19:13;96022.25;;;20.38;92.93
71956;BME280;59829;50.562;6.258;2023-09-08T08:29:13;96025.00;;;20.74;92.53
71956;BME280;59829;50.562;6.258;2023-09-08T08:39:14;96023.63;;;21.08;91.87
71956;BME280;59829;50.562;6.258;2023-09-08T08:49:15;96024.47;;;21.45;91.17
71956;BME280;59829;50.562;6.258;2023-09-08T08:59:16;96019.16;;;21.74;90.25
71956;BME280;59829;50.562;6.258;2023-09-08T09:09:16;96011.69;;;21.92;89.10
71956;BME280;59829;50.562;6.258;2023-09-08T09:19:19;96011.09;;;22.12;87.66
71956;BME280;59829;50.562;6.258;2023-09-08T09:29:28;96015.88;;;22.36;86.46
71956;BME280;59829;50.562;6.258;2023-09-08T09:39:28;96015.63;;;22.59;85.50
71956;BME280;59829;50.562;6.258;2023-09-08T09:49:28;96006.31;;;22.78;84.64
71956;BME280;59829;50.562;6.258;2023-09-08T09:59:32;96011.84;;;22.96;83.80
71956;BME280;59829;50.562;6.258;2023-09-08T10:09:37;96011.31;;;23.21;82.88
71956;BME280;59829;50.562;6.258;2023-09-08T10:19:37;95998.91;;;23.42;82.30
71956;BME280;59829;50.562;6.258;2023-09-08T10:29:41;96007.47;;;23.64;81.69
71956;BME280;59829;50.562;6.258;2023-09-08T10:39:41;96005.69;;;23.85;81.06
71956;BME280;59829;50.562;6.258;2023-09-08T10:49:42;95998.25;;;24.01;80.78
71956;BME280;59829;50.562;6.258;2023-09-08T11:09:54;95997.44;;;24.41;78.65
71956;BME280;59829;50.562;6.258;2023-09-08T11:19:54;95997.41;;;24.54;77.95
71956;BME280;59829;50.562;6.258;2023-09-08T11:29:55;96002.59;;;24.80;77.16
71956;BME280;59829;50.562;6.258;2023-09-08T11:39:56;95995.88;;;24.98;76.30
71956;BME280;59829;50.562;6.258;2023-09-08T11:49:57;96000.09;;;25.12;75.11
71956;BME280;59829;50.562;6.258;2023-09-08T11:59:59;96011.72;;;25.29;74.23
71956;BME280;59829;50.562;6.258;2023-09-08T12:10:06;96004.75;;;25.48;74.01
71956;BME280;59829;50.562;6.258;2023-09-08T12:20:14;96004.09;;;25.59;72.88
71956;BME280;59829;50.562;6.258;2023-09-08T12:30:19;95993.34;;;25.74;72.08
71956;BME280;59829;50.562;6.258;2023-09-08T12:40:20;95993.28;;;25.80;71.27
71956;BME280;59829;50.562;6.258;2023-09-08T12:50:21;95981.47;;;25.96;70.39
71956;BME280;59829;50.562;6.258;2023-09-08T13:00:22;95978.88;;;26.14;69.76
71956;BME280;59829;50.562;6.258;2023-09-08T13:10:25;95976.72;;;26.30;68.12
71956;BME280;59829;50.562;6.258;2023-09-08T13:20:26;95967.88;;;26.49;67.13
71956;BME280;59829;50.562;6.258;2023-09-08T13:30:26;95964.69;;;26.65;65.64
71956;BME280;59829;50.562;6.258;2023-09-08T13:40:27;95967.75;;;26.81;64.94
71956;BME280;59829;50.562;6.258;2023-09-08T13:50:27;95955.31;;;27.06;64.33
71956;BME280;59829;50.562;6.258;2023-09-08T14:00:27;95955.63;;;27.16;63.25
71956;BME280;59829;50.562;6.258;2023-09-08T14:10:28;95949.22;;;27.24;63.11
71956;BME280;59829;50.562;6.258;2023-09-08T14:20:28;95952.72;;;27.36;62.75
71956;BME280;59829;50.562;6.258;2023-09-08T14:30:29;95943.72;;;27.55;61.68
71956;BME280;59829;50.562;6.258;2023-09-08T14:40:29;95945.50;;;27.73;60.74
71956;BME280;59829;50.562;6.258;2023-09-08T14:50:31;95942.03;;;27.61;59.58
71956;BME280;59829;50.562;6.258;2023-09-08T15:00:31;95942.75;;;27.68;59.87
71956;BME280;59829;50.562;6.258;2023-09-08T15:10:32;95937.91;;;27.95;59.51
71956;BME280;59829;50.562;6.258;2023-09-08T15:20:32;95937.19;;;27.88;58.90
71956;BME280;59829;50.562;6.258;2023-09-08T15:30:32;95937.22;;;27.58;58.27
71956;BME280;59829;50.562;6.258;2023-09-08T15:40:33;95929.03;;;27.66;58.36
71956;BME280;59829;50.562;6.258;2023-09-08T15:50:33;95936.34;;;27.64;58.74
71956;BME280;59829;50.562;6.258;2023-09-08T16:00:33;95940.19;;;27.20;59.70
71956;BME280;59829;50.562;6.258;2023-09-08T16:10:34;95942.78;;;27.08;60.78
71956;BME280;59829;50.562;6.258;2023-09-08T16:20:34;95925.94;;;29.15;60.09
71956;BME280;59829;50.562;6.258;2023-09-08T16:30:35;95930.56;;;29.07;58.78
71956;BME280;59829;50.562;6.258;2023-09-08T16:40:36;95941.78;;;28.04;58.58
71956;BME280;59829;50.562;6.258;2023-09-08T16:50:36;95946.13;;;27.57;60.44
71956;BME280;59829;50.562;6.258;2023-09-08T17:00:36;95955.97;;;27.20;61.95
71956;BME280;59829;50.562;6.258;2023-09-08T17:10:37;95951.66;;;26.89;63.78
71956;BME280;59829;50.562;6.258;2023-09-08T17:20:37;95952.13;;;26.67;65.09
71956;BME280;59829;50.562;6.258;2023-09-08T17:30:38;95946.28;;;26.47;66.28
71956;BME280;59829;50.562;6.258;2023-09-08T17:40:38;95948.06;;;26.28;67.52
71956;BME280;59829;50.562;6.258;2023-09-08T17:50:39;95943.00;;;26.08;68.72
71956;BME280;59829;50.562;6.258;2023-09-08T18:00:39;95956.97;;;25.77;69.83
71956;BME280;59829;50.562;6.258;2023-09-08T18:10:39;95958.78;;;25.45;70.84
71956;BME280;59829;50.562;6.258;2023-09-08T18:20:40;95970.44;;;25.11;72.05
71956;BME280;59829;50.562;6.258;2023-09-08T18:30:41;95967.91;;;24.85;73.30
71956;BME280;59829;50.562;6.258;2023-09-08T18:40:43;95978.91;;;24.49;74.13
71956;BME280;59829;50.562;6.258;2023-09-08T18:50:44;95982.53;;;24.15;75.31
71956;BME280;59829;50.562;6.258;2023-09-08T19:00:45;95996.22;;;23.84;76.23
71956;BME280;59829;50.562;6.258;2023-09-08T19:10:45;95997.16;;;23.56;77.62
71956;BME280;59829;50.562;6.258;2023-09-08T19:20:45;95990.03;;;23.24;78.95
71956;BME280;59829;50.562;6.258;2023-09-08T19:30:47;95993.78;;;23.01;80.64
71956;BME280;59829;50.562;6.258;2023-09-08T19:41:00;95999.03;;;22.73;81.83
71956;BME280;59829;50.562;6.258;2023-09-08T19:51:01;95998.31;;;22.51;83.68
71956;BME280;59829;50.562;6.258;2023-09-08T20:01:04;96003.59;;;22.30;84.94
71956;BME280;59829;50.562;6.258;2023-09-08T20:11:04;96000.66;;;22.12;86.20
71956;BME280;59829;50.562;6.258;2023-09-08T20:21:05;96003.25;;;21.90;87.20
71956;BME280;59829;50.562;6.258;2023-09-08T20:31:05;96003.50;;;21.74;88.73
71956;BME280;59829;50.562;6.258;2023-09-08T20:41:08;96000.53;;;21.56;89.75
71956;BME280;59829;50.562;6.258;2023-09-08T20:51:09;95998.16;;;21.40;90.76
71956;BME280;59829;50.562;6.258;2023-09-08T21:01:10;95997.13;;;21.19;91.81
71956;BME280;59829;50.562;6.258;2023-09-08T21:11:11;95996.31;;;21.04;92.39
71956;BME280;59829;50.562;6.258;2023-09-08T21:21:13;95999.75;;;20.90;93.41
71956;BME280;59829;50.562;6.258;2023-09-08T21:31:13;96001.38;;;20.76;94.31
71956;BME280;59829;50.562;6.258;2023-09-08T21:41:14;95993.56;;;20.61;95.04
71956;BME280;59829;50.562;6.258;2023-09-08T21:51:14;95996.00;;;20.48;95.59
71956;BME280;59829;50.562;6.258;2023-09-08T22:01:14;95991.03;;;20.38;96.34
71956;BME280;59829;50.562;6.258;2023-09-08T22:11:15;95990.03;;;20.25;96.76
71956;BME280;59829;50.562;6.258;2023-09-08T22:21:15;95989.75;;;20.20;97.45
71956;BME280;59829;50.562;6.258;2023-09-08T22:31:16;95979.84;;;20.00;97.71
71956;BME280;59829;50.562;6.258;2023-09-08T22:41:16;95984.22;;;19.85;97.74
71956;BME280;59829;50.562;6.258;2023-09-08T22:51:16;95987.56;;;19.71;98.09
71956;BME280;59829;50.562;6.258;2023-09-08T23:01:17;95976.59;;;19.61;98.57
71956;BME280;59829;50.562;6.258;2023-09-08T23:11:17;95975.81;;;19.52;98.93
71956;BME280;59829;50.562;6.258;2023-09-08T23:21:17;95970.84;;;19.42;99.48
71956;BME280;59829;50.562;6.258;2023-09-08T23:31:17;95971.13;;;19.24;99.30
71956;BME280;59829;50.562;6.258;2023-09-08T23:41:18;95960.97;;;19.15;99.56
71956;BME280;59829;50.562;6.258;2023-09-08T23:51:18;95957.13;;;19.03;99.71
